sensor_id;sensor_type;location;lat;lon;timestamp;pressure;altitude;pressure_sealevel;temperature;humidity
5952;BME280;3001;42.622;23.194;2022-07-10T00:02:19;91297.59;;;17.14;100.00
5952;BME280;3001;42.622;23.194;2022-07-10T00:04:46;91297.38;;;17.19;100.00
5952;BME280;3001;42.622;23.194;2022-07-10T00:07:13;91297.19;;;17.12;100.00
5952;BME280;3001;42.622;23.194;2022-07-10T00:09:40;91298.47;;;17.18;100.00
5952;BME280;3001;42.622;23.194;2022-07-10T00:12:07;91294.22;;;17.29;100.00
5952;BME280;3001;42.622;23.194;2022-07-10T00:14:34;91291.44;;;17.38;100.00
5952;BME280;3001;42.622;23.194;2022-07-10T00:17:00;91290.34;;;17.39;100.00
5952;BME280;3001;42.622;23.194;2022-07-10T00:19:28;91297.97;;;17.43;100.00
5952;BME280;3001;42.622;23.194;2022-07-10T00:21:55;91287.44;;;17.43;100.00
5952;BME280;3001;42.622;23.194;2022-07-10T00:24:22;91285.19;;;17.42;100.00
5952;BME280;3001;42.622;23.194;2022-07-10T00:26:49;91286.69;;;17.43;100.00
5952;BME280;3001;42.622;23.194;2022-07-10T00:29:15;91282.97;;;17.44;100.00
5952;BME280;3001;42.622;23.194;2022-07-10T00:31:42;91277.72;;;17.44;100.00
5952;BME280;3001;42.622;23.194;2022-07-10T00:34:09;91283.06;;;17.48;100.00
5952;BME280;3001;42.622;23.194;2022-07-10T00:36:38;91282.28;;;17.47;100.00
5952;BME280;3001;42.622;23.194;2022-07-10T00:39:05;91283.53;;;17.53;100.00
5952;BME280;3001;42.622;23.194;2022-07-10T00:41:32;91276.78;;;17.37;100.00
5952;BME280;3001;42.622;23.194;2022-07-10T00:44:01;91269.59;;;17.34;100.00
5952;BME280;3001;42.622;23.194;2022-07-10T00:46:29;91272.09;;;17.30;100.00
5952;BME280;3001;42.622;23.194;2022-07-10T00:48:57;91279.31;;;17.33;100.00
5952;BME280;3001;42.622;23.194;2022-07-10T00:51:25;91269.34;;;17.39;100.00
5952;BME280;3001;42.622;23.194;2022-07-10T00:53:54;91268.06;;;17.48;100.00
5952;BME280;3001;42.622;23.194;2022-07-10T00:56:23;91270.94;;;17.43;100.00
5952;BME280;3001;42.622;23.194;2022-07-10T00:58:51;91267.97;;;17.29;100.00
5952;BME280;3001;42.622;23.194;2022-07-10T01:01:18;91265.53;;;17.36;100.00
5952;BME280;3001;42.622;23.194;2022-07-10T01:03:45;91273.41;;;17.36;100.00
5952;BME280;3001;42.622;23.194;2022-07-10T01:06:12;91264.91;;;17.42;100.00
5952;BME280;3001;42.622;23.194;2022-07-10T01:08:39;91260.19;;;17.33;100.00
5952;BME280;3001;42.622;23.194;2022-07-10T01:11:08;91245.56;;;17.16;100.00
5952;BME280;3001;42.622;23.194;2022-07-10T01:13:35;91267.28;;;17.32;100.00
5952;BME280;3001;42.622;23.194;2022-07-10T01:16:03;91267.28;;;17.32;100.00
5952;BME280;3001;42.622;23.194;2022-07-10T01:18:30;91245.56;;;17.16;100.00
5952;BME280;3001;42.622;23.194;2022-07-10T01:20:58;91258.41;;;17.21;100.00
5952;BME280;3001;42.622;23.194;2022-07-10T01:23:25;91254.09;;;17.13;100.00
5952;BME280;3001;42.622;23.194;2022-07-10T01:25:52;91254.75;;;17.10;100.00
5952;BME280;3001;42.622;23.194;2022-07-10T01:28:20;91251.63;;;17.05;100.00
5952;BME280;3001;42.622;23.194;2022-07-10T01:30:48;91249.69;;;17.02;100.00
5952;BME280;3001;42.622;23.194;2022-07-10T01:33:15;91250.03;;;17.16;100.00
5952;BME280;3001;42.622;23.194;2022-07-10T01:35:42;91240.38;;;17.04;100.00
5952;BME280;3001;42.622;23.194;2022-07-10T01:38:10;91243.34;;;17.03;100.00
5952;BME280;3001;42.622;23.194;2022-07-10T01:40:37;91238.59;;;17.08;100.00
5952;BME280;3001;42.622;23.194;2022-07-10T01:43:03;91233.25;;;17.05;100.00
5952;BME280;3001;42.622;23.194;2022-07-10T01:45:30;91238.50;;;17.05;100.00
5952;BME280;3001;42.622;23.194;2022-07-10T01:47:57;91232.09;;;17.02;100.00
5952;BME280;3001;42.622;23.194;2022-07-10T01:50:24;91229.81;;;17.16;100.00
5952;BME280;3001;42.622;23.194;2022-07-10T01:52:51;91233.44;;;17.12;100.00
5952;BME280;3001;42.622;23.194;2022-07-10T01:55:19;91229.44;;;17.18;100.00
5952;BME280;3001;42.622;23.194;2022-07-10T01:57:46;91227.25;;;17.20;100.00
5952;BME280;3001;42.622;23.194;2022-07-10T02:00:13;91230.38;;;17.25;100.00
5952;BME280;3001;42.622;23.194;2022-07-10T02:02:40;91228.75;;;17.21;100.00
5952;BME280;3001;42.622;23.194;2022-07-10T02:05:26;91232.84;;;17.34;100.00
5952;BME280;3001;42.622;23.194;2022-07-10T02:07:52;91226.91;;;17.21;100.00
5952;BME280;3001;42.622;23.194;2022-07-10T02:10:20;91224.00;;;17.26;100.00
5952;BME280;3001;42.622;23.194;2022-07-10T02:12:47;91224.00;;;17.26;100.00
5952;BME280;3001;42.622;23.194;2022-07-10T02:15:14;91225.22;;;17.29;100.00
5952;BME280;3001;42.622;23.194;2022-07-10T02:17:41;91221.81;;;17.28;100.00
5952;BME280;3001;42.622;23.194;2022-07-10T02:20:08;91227.75;;;17.25;100.00
5952;BME280;3001;42.622;23.194;2022-07-10T02:22:36;91218.69;;;17.23;100.00
5952;BME280;3001;42.622;23.194;2022-07-10T02:25:03;91219.44;;;17.39;100.00
5952;BME280;3001;42.622;23.194;2022-07-10T02:27:31;91219.94;;;17.44;100.00
5952;BME280;3001;42.622;23.194;2022-07-10T02:29:58;91218.16;;;17.33;100.00
5952;BME280;3001;42.622;23.194;2022-07-10T02:32:25;91222.09;;;17.08;100.00
5952;BME280;3001;42.622;23.194;2022-07-10T02:34:52;91219.72;;;17.18;100.00
5952;BME280;3001;42.622;23.194;2022-07-10T02:37:19;91220.03;;;17.17;100.00
5952;BME280;3001;42.622;23.194;2022-07-10T02:39:46;91219.97;;;17.13;100.00
5952;BME280;3001;42.622;23.194;2022-07-10T02:42:12;91219.31;;;17.16;100.00
5952;BME280;3001;42.622;23.194;2022-07-10T02:44:40;91220.69;;;17.29;100.00
5952;BME280;3001;42.622;23.194;2022-07-10T02:47:07;91221.41;;;17.11;100.00
5952;BME280;3001;42.622;23.194;2022-07-10T02:49:34;91221.84;;;17.13;100.00
5952;BME280;3001;42.622;23.194;2022-07-10T02:52:01;91227.16;;;17.01;100.00
5952;BME280;3001;42.622;23.194;2022-07-10T02:54:28;91224.47;;;16.97;100.00
5952;BME280;3001;42.622;23.194;2022-07-10T02:56:54;91224.06;;;16.95;100.00
5952;BME280;3001;42.622;23.194;2022-07-10T02:59:21;91228.63;;;16.98;100.00
5952;BME280;3001;42.622;23.194;2022-07-10T03:01:49;91217.97;;;17.07;100.00
5952;BME280;3001;42.622;23.194;2022-07-10T03:04:16;91228.78;;;17.05;100.00
5952;BME280;3001;42.622;23.194;2022-07-10T03:06:43;91230.81;;;17.12;100.00
5952;BME280;3001;42.622;23.194;2022-07-10T03:09:10;91225.16;;;17.10;100.00
5952;BME280;3001;42.622;23.194;2022-07-10T03:11:36;91237.06;;;17.07;100.00
5952;BME280;3001;42.622;23.194;2022-07-10T03:14:03;91238.03;;;16.99;100.00
5952;BME280;3001;42.622;23.194;2022-07-10T03:16:31;91239.34;;;16.93;100.00
5952;BME280;3001;42.622;23.194;2022-07-10T03:18:59;91247.47;;;17.04;100.00
5952;BME280;3001;42.622;23.194;2022-07-10T03:21:26;91253.75;;;17.15;100.00
5952;BME280;3001;42.622;23.194;2022-07-10T03:23:52;91239.44;;;17.12;100.00
5952;BME280;3001;42.622;23.194;2022-07-10T03:26:19;91246.28;;;17.17;100.00
5952;BME280;3001;42.622;23.194;2022-07-10T03:28:46;91243.66;;;17.32;100.00
5952;BME280;3001;42.622;23.194;2022-07-10T03:31:14;91239.91;;;17.33;100.00
5952;BME280;3001;42.622;23.194;2022-07-10T03:33:40;91238.50;;;17.36;100.00
5952;BME280;3001;42.622;23.194;2022-07-10T03:36:08;91243.16;;;17.42;100.00
5952;BME280;3001;42.622;23.194;2022-07-10T03:38:35;91233.69;;;17.38;100.00
5952;BME280;3001;42.622;23.194;2022-07-10T03:41:02;91245.53;;;17.32;100.00
5952;BME280;3001;42.622;23.194;2022-07-10T03:43:29;91240.72;;;17.34;100.00
5952;BME280;3001;42.622;23.194;2022-07-10T03:45:56;91233.59;;;17.34;100.00
5952;BME280;3001;42.622;23.194;2022-07-10T03:48:23;91236.81;;;17.28;100.00
5952;BME280;3001;42.622;23.194;2022-07-10T03:50:50;91238.75;;;17.31;100.00
5952;BME280;3001;42.622;23.194;2022-07-10T03:53:19;91229.19;;;17.23;100.00
5952;BME280;3001;42.622;23.194;2022-07-10T03:55:45;91234.66;;;17.33;100.00
5952;BME280;3001;42.622;23.194;2022-07-10T03:58:12;91224.78;;;17.27;100.00
5952;BME280;3001;42.622;23.194;2022-07-10T04:00:38;91222.16;;;17.27;100.00
5952;BME280;3001;42.622;23.194;2022-07-10T04:03:08;91228.78;;;17.36;100.00
5952;BME280;3001;42.622;23.194;2022-07-10T04:05:35;91231.13;;;17.41;100.00
5952;BME280;3001;42.622;23.194;2022-07-10T04:08:05;91230.31;;;17.37;100.00
5952;BME280;3001;42.622;23.194;2022-07-10T04:10:34;91221.31;;;17.38;100.00
5952;BME280;3001;42.622;23.194;2022-07-10T04:13:01;91218.28;;;17.36;100.00
5952;BME280;3001;42.622;23.194;2022-07-10T04:15:28;91217.59;;;17.39;100.00
5952;BME280;3001;42.622;23.194;2022-07-10T04:17:55;91215.38;;;17.41;100.00
5952;BME280;3001;42.622;23.194;2022-07-10T04:20:22;91220.69;;;17.44;100.00
5952;BME280;3001;42.622;23.194;2022-07-10T04:22:50;91217.03;;;17.49;100.00
5952;BME280;3001;42.622;23.194;2022-07-10T04:25:16;91210.41;;;17.55;100.00
5952;BME280;3001;42.622;23.194;2022-07-10T04:27:45;91220.16;;;17.54;100.00
5952;BME280;3001;42.622;23.194;2022-07-10T04:30:11;91222.66;;;17.48;100.00
5952;BME280;3001;42.622;23.194;2022-07-10T04:32:38;91216.97;;;17.45;100.00
5952;BME280;3001;42.622;23.194;2022-07-10T04:35:05;91214.78;;;17.48;100.00
5952;BME280;3001;42.622;23.194;2022-07-10T04:37:32;91216.31;;;17.48;100.00
5952;BME280;3001;42.622;23.194;2022-07-10T04:40:00;91215.59;;;17.51;100.00
5952;BME280;3001;42.622;23.194;2022-07-10T04:42:27;91217.41;;;17.66;100.00
5952;BME280;3001;42.622;23.194;2022-07-10T04:44:55;91221.09;;;17.62;100.00
5952;BME280;3001;42.622;23.194;2022-07-10T04:47:22;91216.66;;;17.66;100.00
5952;BME280;3001;42.622;23.194;2022-07-10T04:49:49;91212.59;;;17.68;100.00
5952;BME280;3001;42.622;23.194;2022-07-10T04:52:15;91216.66;;;17.66;100.00
5952;BME280;3001;42.622;23.194;2022-07-10T04:54:42;91220.38;;;17.65;100.00
5952;BME280;3001;42.622;23.194;2022-07-10T04:57:09;91222.53;;;17.59;100.00
5952;BME280;3001;42.622;23.194;2022-07-10T04:59:36;91224.94;;;17.49;100.00
5952;BME280;3001;42.622;23.194;2022-07-10T05:02:04;91225.72;;;17.68;100.00
5952;BME280;3001;42.622;23.194;2022-07-10T05:04:32;91222.47;;;17.75;100.00
5952;BME280;3001;42.622;23.194;2022-07-10T05:06:59;91222.69;;;17.85;100.00
5952;BME280;3001;42.622;23.194;2022-07-10T05:09:26;91218.97;;;17.67;100.00
5952;BME280;3001;42.622;23.194;2022-07-10T05:11:52;91208.56;;;17.55;100.00
5952;BME280;3001;42.622;23.194;2022-07-10T05:14:19;91220.59;;;17.56;100.00
5952;BME280;3001;42.622;23.194;2022-07-10T05:16:47;91212.44;;;17.61;100.00
5952;BME280;3001;42.622;23.194;2022-07-10T05:19:15;91211.28;;;17.59;100.00
5952;BME280;3001;42.622;23.194;2022-07-10T05:21:42;91222.06;;;17.73;100.00
5952;BME280;3001;42.622;23.194;2022-07-10T05:24:08;91217.22;;;17.75;100.00
5952;BME280;3001;42.622;23.194;2022-07-10T05:26:35;91213.69;;;17.67;100.00
5952;BME280;3001;42.622;23.194;2022-07-10T05:29:02;91215.22;;;17.68;100.00
5952;BME280;3001;42.622;23.194;2022-07-10T05:31:29;91216.19;;;17.79;100.00
5952;BME280;3001;42.622;23.194;2022-07-10T05:33:55;91223.19;;;17.91;100.00
5952;BME280;3001;42.622;23.194;2022-07-10T05:36:23;91226.38;;;18.00;100.00
5952;BME280;3001;42.622;23.194;2022-07-10T05:38:50;91231.88;;;18.14;100.00
5952;BME280;3001;42.622;23.194;2022-07-10T05:41:17;91222.34;;;18.25;100.00
5952;BME280;3001;42.622;23.194;2022-07-10T05:43:44;91220.91;;;18.27;100.00
5952;BME280;3001;42.622;23.194;2022-07-10T05:46:11;91223.09;;;18.44;100.00
5952;BME280;3001;42.622;23.194;2022-07-10T05:48:37;91216.97;;;18.59;100.00
5952;BME280;3001;42.622;23.194;2022-07-10T05:51:04;91222.31;;;18.63;100.00
5952;BME280;3001;42.622;23.194;2022-07-10T05:53:33;91230.38;;;18.73;100.00
5952;BME280;3001;42.622;23.194;2022-07-10T05:56:00;91232.13;;;18.88;100.00
5952;BME280;3001;42.622;23.194;2022-07-10T05:58:27;91231.91;;;18.97;100.00
5952;BME280;3001;42.622;23.194;2022-07-10T06:00:54;91232.84;;;19.08;100.00
5952;BME280;3001;42.622;23.194;2022-07-10T06:03:21;91235.81;;;19.06;100.00
5952;BME280;3001;42.622;23.194;2022-07-10T06:05:48;91238.44;;;19.06;100.00
5952;BME280;3001;42.622;23.194;2022-07-10T06:08:15;91241.47;;;19.08;100.00
5952;BME280;3001;42.622;23.194;2022-07-10T06:10:43;91243.84;;;19.13;100.00
5952;BME280;3001;42.622;23.194;2022-07-10T06:13:10;91236.78;;;19.17;99.86
5952;BME280;3001;42.622;23.194;2022-07-10T06:15:37;91227.00;;;19.18;99.74
5952;BME280;3001;42.622;23.194;2022-07-10T06:18:04;91232.09;;;19.29;99.51
5952;BME280;3001;42.622;23.194;2022-07-10T06:20:31;91227.00;;;19.18;100.00
5952;BME280;3001;42.622;23.194;2022-07-10T06:22:57;91228.84;;;19.39;100.00
5952;BME280;3001;42.622;23.194;2022-07-10T06:25:25;91234.53;;;19.41;100.00
5952;BME280;3001;42.622;23.194;2022-07-10T06:27:53;91228.16;;;19.42;100.00
5952;BME280;3001;42.622;23.194;2022-07-10T06:30:20;91229.94;;;19.38;100.00
5952;BME280;3001;42.622;23.194;2022-07-10T06:32:46;91218.97;;;19.33;100.00
5952;BME280;3001;42.622;23.194;2022-07-10T06:35:13;91219.56;;;19.49;100.00
5952;BME280;3001;42.622;23.194;2022-07-10T06:37:40;91229.91;;;19.61;99.11
5952;BME280;3001;42.622;23.194;2022-07-10T06:40:09;91221.28;;;19.64;98.98
5952;BME280;3001;42.622;23.194;2022-07-10T06:42:36;91234.72;;;19.81;95.27
5952;BME280;3001;42.622;23.194;2022-07-10T06:45:05;91237.66;;;19.76;96.00
5952;BME280;3001;42.622;23.194;2022-07-10T06:47:32;91232.81;;;19.82;97.54
5952;BME280;3001;42.622;23.194;2022-07-10T06:50:16;91231.13;;;19.96;94.41
5952;BME280;3001;42.622;23.194;2022-07-10T06:52:43;91239.56;;;20.05;94.84
5952;BME280;3001;42.622;23.194;2022-07-10T06:55:11;91228.31;;;20.08;94.78
5952;BME280;3001;42.622;23.194;2022-07-10T06:57:38;91237.16;;;19.97;92.30
5952;BME280;3001;42.622;23.194;2022-07-10T07:00:07;91236.41;;;19.96;93.14
5952;BME280;3001;42.622;23.194;2022-07-10T07:02:36;91226.72;;;20.04;95.52
5952;BME280;3001;42.622;23.194;2022-07-10T07:05:04;91224.50;;;20.06;97.93
5952;BME280;3001;42.622;23.194;2022-07-10T07:07:31;91231.00;;;20.15;100.00
5952;BME280;3001;42.622;23.194;2022-07-10T07:09:57;91230.13;;;20.37;97.73
5952;BME280;3001;42.622;23.194;2022-07-10T07:12:24;91225.59;;;20.34;94.24
5952;BME280;3001;42.622;23.194;2022-07-10T07:14:51;91240.06;;;20.47;91.58
5952;BME280;3001;42.622;23.194;2022-07-10T07:17:19;91234.75;;;20.44;92.86
5952;BME280;3001;42.622;23.194;2022-07-10T07:19:50;91226.88;;;20.47;89.70
5952;BME280;3001;42.622;23.194;2022-07-10T07:22:34;91235.66;;;20.58;87.33
5952;BME280;3001;42.622;23.194;2022-07-10T07:25:19;91230.47;;;20.69;91.42
5952;BME280;3001;42.622;23.194;2022-07-10T07:27:45;91228.78;;;20.83;95.38
5952;BME280;3001;42.622;23.194;2022-07-10T07:30:14;91229.97;;;20.89;90.98
5952;BME280;3001;42.622;23.194;2022-07-10T07:32:44;91226.06;;;21.19;89.56
5952;BME280;3001;42.622;23.194;2022-07-10T07:35:12;91236.66;;;21.23;89.42
5952;BME280;3001;42.622;23.194;2022-07-10T07:37:40;91237.06;;;21.28;90.49
5952;BME280;3001;42.622;23.194;2022-07-10T07:40:09;91237.63;;;21.48;90.04
5952;BME280;3001;42.622;23.194;2022-07-10T07:42:37;91241.78;;;21.52;85.59
5952;BME280;3001;42.622;23.194;2022-07-10T07:45:05;91243.72;;;21.59;87.12
5952;BME280;3001;42.622;23.194;2022-07-10T07:47:44;91235.53;;;21.74;86.14
5952;BME280;3001;42.622;23.194;2022-07-10T07:50:11;91227.66;;;21.85;88.14
5952;BME280;3001;42.622;23.194;2022-07-10T07:52:38;91232.25;;;21.91;83.74
5952;BME280;3001;42.622;23.194;2022-07-10T07:55:06;91234.63;;;22.07;80.29
5952;BME280;3001;42.622;23.194;2022-07-10T07:57:32;91229.03;;;22.29;83.46
5952;BME280;3001;42.622;23.194;2022-07-10T07:59:59;91234.41;;;22.43;82.92
5952;BME280;3001;42.622;23.194;2022-07-10T08:02:26;91228.66;;;22.31;81.36
5952;BME280;3001;42.622;23.194;2022-07-10T08:04:54;91233.22;;;22.34;78.19
5952;BME280;3001;42.622;23.194;2022-07-10T08:07:21;91222.97;;;22.32;77.82
5952;BME280;3001;42.622;23.194;2022-07-10T08:09:48;91229.81;;;22.37;76.80
5952;BME280;3001;42.622;23.194;2022-07-10T08:12:15;91232.50;;;22.40;78.84
5952;BME280;3001;42.622;23.194;2022-07-10T08:14:41;91228.03;;;22.62;81.69
5952;BME280;3001;42.622;23.194;2022-07-10T08:17:08;91223.53;;;22.73;79.72
5952;BME280;3001;42.622;23.194;2022-07-10T08:19:35;91231.47;;;22.73;82.78
5952;BME280;3001;42.622;23.194;2022-07-10T08:22:04;91236.41;;;22.78;76.54
5952;BME280;3001;42.622;23.194;2022-07-10T08:24:30;91237.16;;;22.75;80.96
5952;BME280;3001;42.622;23.194;2022-07-10T08:26:57;91231.88;;;22.82;83.73
5952;BME280;3001;42.622;23.194;2022-07-10T08:29:24;91228.47;;;22.85;78.11
5952;BME280;3001;42.622;23.194;2022-07-10T08:31:51;91233.44;;;23.10;80.69
5952;BME280;3001;42.622;23.194;2022-07-10T08:34:17;91230.06;;;23.27;78.99
5952;BME280;3001;42.622;23.194;2022-07-10T08:36:44;91234.59;;;23.44;79.24
5952;BME280;3001;42.622;23.194;2022-07-10T08:39:12;91238.00;;;23.62;74.41
5952;BME280;3001;42.622;23.194;2022-07-10T08:41:42;91238.00;;;23.73;75.97
5952;BME280;3001;42.622;23.194;2022-07-10T08:44:10;91241.78;;;23.68;76.39
5952;BME280;3001;42.622;23.194;2022-07-10T08:46:38;91224.38;;;23.64;78.72
5952;BME280;3001;42.622;23.194;2022-07-10T08:49:08;91234.22;;;23.84;80.95
5952;BME280;3001;42.622;23.194;2022-07-10T08:51:39;91232.72;;;23.87;78.77
5952;BME280;3001;42.622;23.194;2022-07-10T08:54:07;91238.03;;;23.90;76.13
5952;BME280;3001;42.622;23.194;2022-07-10T08:56:36;91236.47;;;23.89;77.37
5952;BME280;3001;42.622;23.194;2022-07-10T08:59:04;91225.88;;;23.93;72.63
5952;BME280;3001;42.622;23.194;2022-07-10T09:01:31;91232.25;;;24.16;74.72
5952;BME280;3001;42.622;23.194;2022-07-10T09:03:58;91234.47;;;24.28;72.20
5952;BME280;3001;42.622;23.194;2022-07-10T09:06:26;91236.44;;;24.21;72.57
5952;BME280;3001;42.622;23.194;2022-07-10T09:09:02;91232.69;;;24.01;73.77
5952;BME280;3001;42.622;23.194;2022-07-10T09:11:29;91237.22;;;23.97;76.75
5952;BME280;3001;42.622;23.194;2022-07-10T09:13:59;91237.25;;;23.93;75.27
5952;BME280;3001;42.622;23.194;2022-07-10T09:16:27;91228.88;;;24.05;77.89
5952;BME280;3001;42.622;23.194;2022-07-10T09:18:54;91228.09;;;24.12;74.49
5952;BME280;3001;42.622;23.194;2022-07-10T09:21:22;91234.19;;;24.05;69.16
5952;BME280;3001;42.622;23.194;2022-07-10T09:23:49;91234.19;;;23.98;70.61
5952;BME280;3001;42.622;23.194;2022-07-10T09:26:16;91229.66;;;23.95;76.13
5952;BME280;3001;42.622;23.194;2022-07-10T09:28:43;91224.34;;;23.92;79.54
5952;BME280;3001;42.622;23.194;2022-07-10T09:31:11;91224.75;;;23.87;77.64
5952;BME280;3001;42.622;23.194;2022-07-10T09:33:40;91224.34;;;23.81;70.81
5952;BME280;3001;42.622;23.194;2022-07-10T09:36:07;91217.19;;;23.82;73.77
5952;BME280;3001;42.622;23.194;2022-07-10T09:38:49;91226.63;;;23.69;70.56
5952;BME280;3001;42.622;23.194;2022-07-10T09:41:19;91228.16;;;23.63;68.82
5952;BME280;3001;42.622;23.194;2022-07-10T09:43:48;91228.53;;;23.75;70.40
5952;BME280;3001;42.622;23.194;2022-07-10T09:46:18;91228.91;;;23.67;69.07
5952;BME280;3001;42.622;23.194;2022-07-10T09:48:45;91231.94;;;23.65;69.88
5952;BME280;3001;42.622;23.194;2022-07-10T09:51:12;91228.16;;;23.56;76.56
5952;BME280;3001;42.622;23.194;2022-07-10T09:53:40;91233.09;;;23.57;80.10
5952;BME280;3001;42.622;23.194;2022-07-10T09:56:09;91219.47;;;23.55;82.25
5952;BME280;3001;42.622;23.194;2022-07-10T09:58:36;91215.28;;;23.58;82.09
5952;BME280;3001;42.622;23.194;2022-07-10T10:01:04;91206.19;;;23.69;79.07
5952;BME280;3001;42.622;23.194;2022-07-10T10:03:36;91227.41;;;23.87;74.26
5952;BME280;3001;42.622;23.194;2022-07-10T10:06:09;91221.69;;;24.06;72.58
5952;BME280;3001;42.622;23.194;2022-07-10T10:08:44;91219.28;;;24.36;76.68
5952;BME280;3001;42.622;23.194;2022-07-10T10:11:19;91228.75;;;24.40;67.69
5952;BME280;3001;42.622;23.194;2022-07-10T10:13:46;91226.53;;;24.28;65.38
5952;BME280;3001;42.622;23.194;2022-07-10T10:16:14;91220.06;;;24.33;71.46
5952;BME280;3001;42.622;23.194;2022-07-10T10:18:43;91217.81;;;24.31;73.88
5952;BME280;3001;42.622;23.194;2022-07-10T10:21:25;91220.09;;;24.22;74.56
5952;BME280;3001;42.622;23.194;2022-07-10T10:23:53;91222.00;;;24.18;75.97
5952;BME280;3001;42.622;23.194;2022-07-10T10:26:21;91205.72;;;24.09;76.27
5952;BME280;3001;42.622;23.194;2022-07-10T10:28:49;91217.44;;;24.22;76.62
5952;BME280;3001;42.622;23.194;2022-07-10T10:31:16;91219.38;;;24.11;71.57
5952;BME280;3001;42.622;23.194;2022-07-10T10:33:45;91226.25;;;24.02;70.71
5952;BME280;3001;42.622;23.194;2022-07-10T10:36:36;91216.78;;;24.01;72.50
5952;BME280;3001;42.622;23.194;2022-07-10T10:39:08;91211.47;;;23.83;74.15
5952;BME280;3001;42.622;23.194;2022-07-10T10:41:40;91220.19;;;23.73;73.83
5952;BME280;3001;42.622;23.194;2022-07-10T10:44:34;91225.84;;;23.79;73.03
5952;BME280;3001;42.622;23.194;2022-07-10T10:47:05;91222.84;;;23.66;68.05
5952;BME280;3001;42.622;23.194;2022-07-10T10:49:57;91217.53;;;23.73;73.88
5952;BME280;3001;42.622;23.194;2022-07-10T10:52:25;91211.09;;;23.88;74.07
5952;BME280;3001;42.622;23.194;2022-07-10T10:55:05;91206.88;;;24.08;73.30
5952;BME280;3001;42.622;23.194;2022-07-10T10:57:41;91192.00;;;24.35;78.14
5952;BME280;3001;42.622;23.194;2022-07-10T11:00:30;91207.44;;;24.65;75.73
5952;BME280;3001;42.622;23.194;2022-07-10T11:03:16;91203.69;;;24.52;66.00
5952;BME280;3001;42.622;23.194;2022-07-10T11:05:46;91206.34;;;24.48;63.82
5952;BME280;3001;42.622;23.194;2022-07-10T11:08:15;91202.94;;;24.44;68.77
5952;BME280;3001;42.622;23.194;2022-07-10T11:11:01;91200.66;;;24.53;71.85
5952;BME280;3001;42.622;23.194;2022-07-10T11:13:28;91193.50;;;24.36;74.40
5952;BME280;3001;42.622;23.194;2022-07-10T11:15:55;91192.69;;;24.46;74.09
5952;BME280;3001;42.622;23.194;2022-07-10T11:18:23;91193.88;;;24.35;70.67
5952;BME280;3001;42.622;23.194;2022-07-10T11:20:55;91195.06;;;24.23;72.74
5952;BME280;3001;42.622;23.194;2022-07-10T11:23:50;91187.53;;;24.11;79.06
5952;BME280;3001;42.622;23.194;2022-07-10T11:26:25;91186.06;;;24.00;78.30
5952;BME280;3001;42.622;23.194;2022-07-10T11:28:59;91196.31;;;23.94;76.58
5952;BME280;3001;42.622;23.194;2022-07-10T11:31:27;91197.44;;;23.86;71.45
5952;BME280;3001;42.622;23.194;2022-07-10T11:33:56;91203.91;;;23.85;68.87
5952;BME280;3001;42.622;23.194;2022-07-10T11:36:25;91199.72;;;23.77;70.59
5952;BME280;3001;42.622;23.194;2022-07-10T11:38:56;91187.19;;;23.78;78.67
5952;BME280;3001;42.622;23.194;2022-07-10T11:41:25;91189.47;;;23.86;79.22
5952;BME280;3001;42.622;23.194;2022-07-10T11:43:52;91181.13;;;24.02;82.53
5952;BME280;3001;42.622;23.194;2022-07-10T11:46:21;91189.75;;;24.20;72.79
5952;BME280;3001;42.622;23.194;2022-07-10T11:48:49;91190.13;;;24.32;76.09
5952;BME280;3001;42.622;23.194;2022-07-10T11:51:21;91194.56;;;24.49;73.69
5952;BME280;3001;42.622;23.194;2022-07-10T11:54:00;91193.81;;;24.59;72.85
5952;BME280;3001;42.622;23.194;2022-07-10T11:56:29;91199.38;;;24.82;75.24
5952;BME280;3001;42.622;23.194;2022-07-10T11:58:59;91208.84;;;24.86;65.62
5952;BME280;3001;42.622;23.194;2022-07-10T12:01:27;91211.00;;;25.05;65.55
5952;BME280;3001;42.622;23.194;2022-07-10T12:03:59;91191.91;;;25.17;65.27
5952;BME280;3001;42.622;23.194;2022-07-10T12:06:26;91181.28;;;25.24;66.90
5952;BME280;3001;42.622;23.194;2022-07-10T12:08:54;91201.50;;;25.59;65.81
5952;BME280;3001;42.622;23.194;2022-07-10T12:11:23;91208.25;;;25.67;63.51
5952;BME280;3001;42.622;23.194;2022-07-10T12:13:51;91214.72;;;25.66;61.17
5952;BME280;3001;42.622;23.194;2022-07-10T12:16:19;91204.81;;;25.70;62.54
5952;BME280;3001;42.622;23.194;2022-07-10T12:18:48;91202.28;;;25.56;63.09
5952;BME280;3001;42.622;23.194;2022-07-10T12:21:15;91205.66;;;25.63;61.36
5952;BME280;3001;42.622;23.194;2022-07-10T12:23:43;91208.00;;;25.54;64.70
5952;BME280;3001;42.622;23.194;2022-07-10T12:26:12;91200.09;;;25.44;69.19
5952;BME280;3001;42.622;23.194;2022-07-10T12:28:52;91194.06;;;25.36;68.08
5952;BME280;3001;42.622;23.194;2022-07-10T12:31:21;91200.88;;;25.44;67.96
5952;BME280;3001;42.622;23.194;2022-07-10T12:33:50;91189.91;;;25.35;65.97
5952;BME280;3001;42.622;23.194;2022-07-10T12:36:18;91185.44;;;25.25;63.96
5952;BME280;3001;42.622;23.194;2022-07-10T12:38:53;91205.78;;;25.46;65.63
5952;BME280;3001;42.622;23.194;2022-07-10T12:41:20;91199.31;;;25.47;68.66
5952;BME280;3001;42.622;23.194;2022-07-10T12:43:51;91198.59;;;25.39;68.69
5952;BME280;3001;42.622;23.194;2022-07-10T12:46:19;91195.38;;;25.18;69.04
5952;BME280;3001;42.622;23.194;2022-07-10T12:49:04;91201.44;;;25.15;68.40
5952;BME280;3001;42.622;23.194;2022-07-10T12:51:32;91197.66;;;25.09;69.54
5952;BME280;3001;42.622;23.194;2022-07-10T12:54:00;91202.25;;;25.08;66.39
5952;BME280;3001;42.622;23.194;2022-07-10T12:56:34;91203.69;;;25.16;67.62
5952;BME280;3001;42.622;23.194;2022-07-10T12:59:03;91199.22;;;25.06;62.59
5952;BME280;3001;42.622;23.194;2022-07-10T13:01:39;91194.28;;;25.01;65.16
5952;BME280;3001;42.622;23.194;2022-07-10T13:04:06;91193.91;;;25.03;69.74
5952;BME280;3001;42.622;23.194;2022-07-10T13:06:35;91193.84;;;25.13;69.23
5952;BME280;3001;42.622;23.194;2022-07-10T13:09:03;91202.09;;;25.33;68.40
5952;BME280;3001;42.622;23.194;2022-07-10T13:11:30;91197.59;;;25.26;62.79
5952;BME280;3001;42.622;23.194;2022-07-10T13:13:56;91200.69;;;25.18;56.52